Time;durP1;ratioP1;P1;durP2;ratioP2;P2;SDS_P1;SDS_P2;PMS_P1;PMS_P2;Temp;Humidity;BMP_temperature;BMP_pressure;BME280_temperature;BME280_humidity;BME280_pressure;Samples;Min_cycle;Max_cycle;Signal;HPM_P1;HPM_P2
2022/06/03 00:02:51;;;;;;;79.50;74.10;;;;;;;13.85;100.00;101901.66;2020599;70;26343;-71
2022/06/03 00:09:33;;;;;;;79.93;73.97;;;;;;;13.78;100.00;101896.34;2060926;69;32708;-75
2022/06/03 00:15:59;;;;;;;80.63;74.90;;;;;;;13.69;100.00;101891.08;2049311;69;32683;-71
2022/06/03 00:18:58;;;;;;;79.77;73.97;;;;;;;13.82;100.00;101900.84;2014663;70;26759;-74
2022/06/03 00:25:10;;;;;;;81.40;75.80;;;;;;;13.91;100.00;101882.36;2044751;69;32586;-73
2022/06/03 00:31:35;;;;;;;80.83;75.23;;;;;;;13.66;100.00;101878.50;2054913;69;32691;-75
2022/06/03 00:34:15;;;;;;;79.73;74.23;;;;;;;13.59;100.00;101886.33;2008171;70;26665;-75
2022/06/03 00:37:00;;;;;;;81.53;75.67;;;;;;;13.63;100.00;101883.81;2027568;70;26198;-72
2022/06/03 00:43:17;;;;;;;83.30;77.37;;;;;;;13.82;100.00;101875.11;2053945;69;32567;-74
2022/06/03 00:45:59;;;;;;;80.07;74.37;;;;;;;13.79;100.00;101879.88;2020938;70;26223;-74
2022/06/03 00:48:43;;;;;;;77.87;72.27;;;;;;;13.65;100.00;101879.61;2013613;70;26279;-74
2022/06/03 00:51:48;;;;;;;80.70;75.07;;;;;;;13.72;100.00;101884.09;2022909;70;26198;-72
2022/06/03 00:55:01;;;;;;;81.47;75.53;;;;;;;13.71;100.00;101882.41;1902608;73;26207;-73
2022/06/03 00:57:55;;;;;;;80.40;74.60;;;;;;;13.68;100.00;101889.40;1936766;73;26691;-73
2022/06/03 01:00:28;;;;;;;80.23;74.53;;;;;;;13.49;100.00;101888.28;1936167;73;26329;-75
2022/06/03 01:03:13;;;;;;;77.87;72.27;;;;;;;13.40;100.00;101882.41;1965272;72;26226;-73
2022/06/03 01:06:02;;;;;;;79.13;73.40;;;;;;;13.56;100.00;101884.08;1937809;73;26211;-74
2022/06/03 01:12:07;;;;;;;76.90;71.30;;;;;;;13.63;100.00;101874.88;2043352;69;32634;-73
2022/06/03 01:14:45;;;;;;;77.27;71.63;;;;;;;13.67;100.00;101879.34;2013011;71;26641;-75
2022/06/03 01:17:22;;;;;;;78.13;72.33;;;;;;;14.03;100.00;101872.55;2010850;70;26266;-75
2022/06/03 01:20:01;;;;;;;77.03;71.70;;;;;;;13.94;100.00;101871.48;2004041;70;26296;-75
2022/06/03 01:22:41;;;;;;;75.97;70.67;;;;;;;13.98;100.00;101870.35;2022699;70;26709;-75
2022/06/03 01:25:33;;;;;;;77.13;71.77;;;;;;;14.01;100.00;101869.78;2015792;70;26459;-75
2022/06/03 01:28:36;;;;;;;75.63;70.40;;;;;;;13.96;100.00;101861.41;2013965;70;26215;-72
2022/06/03 01:31:26;;;;;;;78.73;73.03;;;;;;;14.04;100.00;101865.02;2011210;70;26964;-72
2022/06/03 01:34:06;;;;;;;77.90;72.47;;;;;;;13.94;100.00;101862.27;2003334;70;26215;-74
2022/06/03 01:36:53;;;;;;;78.73;73.23;;;;;;;13.90;100.00;101856.41;2016534;70;26278;-74
2022/06/03 01:39:36;;;;;;;79.27;73.57;;;;;;;13.77;100.00;101852.81;2023146;71;26707;-75
2022/06/03 01:43:01;;;;;;;77.60;72.20;;;;;;;13.74;100.00;101849.16;1973256;72;26728;-72
2022/06/03 01:46:10;;;;;;;80.77;75.07;;;;;;;13.91;100.00;101848.28;1808072;74;26702;-75
2022/06/03 01:49:39;;;;;;;74.03;68.60;;;;;;;13.79;100.00;101846.92;1937039;73;26718;-74
2022/06/03 01:52:35;;;;;;;77.97;72.43;;;;;;;13.86;100.00;101844.69;1948969;72;26210;-72
2022/06/03 01:55:52;;;;;;;84.83;78.73;;;;;;;13.68;100.00;101837.74;1936674;73;26293;-75
2022/06/03 01:59:08;;;;;;;85.27;79.17;;;;;;;13.56;100.00;101853.38;1931944;73;26245;-74
2022/06/03 02:02:34;;;;;;;86.13;80.13;;;;;;;13.58;100.00;101853.10;1954112;73;26168;-73
2022/06/03 02:05:38;;;;;;;82.03;76.13;;;;;;;13.59;100.00;101851.44;1968115;72;26261;-73
2022/06/03 02:12:11;;;;;;;88.60;82.10;;;;;;;13.25;100.00;101847.55;2034654;69;32552;-73
2022/06/03 02:15:11;;;;;;;90.87;84.13;;;;;;;13.20;100.00;101854.52;1998232;70;26219;-73
2022/06/03 02:18:22;;;;;;;90.87;84.27;;;;;;;13.23;100.00;101846.42;2012774;70;26211;-73
2022/06/03 02:21:36;;;;;;;93.50;86.70;;;;;;;13.10;100.00;101841.91;2006861;70;26676;-75
2022/06/03 02:24:54;;;;;;;90.67;83.57;;;;;;;13.02;100.00;101832.70;1930611;73;26232;-73
2022/06/03 02:28:06;;;;;;;87.27;80.40;;;;;;;12.93;100.00;101830.18;2016834;70;26283;-74
2022/06/03 02:31:09;;;;;;;87.03;80.27;;;;;;;12.89;100.00;101820.14;2018019;70;26741;-75
2022/06/03 02:34:11;;;;;;;85.17;78.67;;;;;;;12.80;100.00;101819.01;2010007;70;26222;-74
2022/06/03 02:37:07;;;;;;;87.47;80.70;;;;;;;12.85;100.00;101806.48;2016706;70;26288;-72
2022/06/03 02:39:50;;;;;;;86.37;79.83;;;;;;;12.83;100.00;101810.12;2004911;70;26307;-72
2022/06/03 02:42:56;;;;;;;86.93;80.63;;;;;;;12.76;100.00;101813.16;2013102;70;26266;-75
2022/06/03 02:45:39;;;;;;;83.37;76.87;;;;;;;12.82;100.00;101818.74;2017705;70;26263;-75
2022/06/03 02:48:57;;;;;;;87.93;81.33;;;;;;;12.78;100.00;101815.68;2020632;70;26737;-73
2022/06/03 02:55:00;;;;;;;85.33;79.17;;;;;;;12.67;100.00;101812.02;2035724;69;32640;-74
2022/06/03 02:57:55;;;;;;;83.13;76.93;;;;;;;12.63;100.00;101815.63;2015426;70;26723;-71
2022/06/03 03:00:45;;;;;;;87.30;80.77;;;;;;;12.72;100.00;101803.67;1938821;73;26687;-74
2022/06/03 03:03:47;;;;;;;82.67;76.33;;;;;;;12.73;100.00;101803.12;2006262;70;26215;-71
2022/06/03 03:06:28;;;;;;;82.77;76.57;;;;;;;12.76;100.00;101803.39;2017524;70;26675;-75
2022/06/03 03:09:30;;;;;;;85.03;78.43;;;;;;;12.73;100.00;101797.55;1975606;72;26699;-73
2022/06/03 03:12:21;;;;;;;85.33;79.33;;;;;;;12.68;100.00;101790.56;1972961;72;26222;-75
2022/06/03 03:15:06;;;;;;;83.57;77.67;;;;;;;12.64;100.00;101794.46;1994062;72;26169;-73
2022/06/03 03:18:05;;;;;;;82.33;76.53;;;;;;;12.52;100.00;101796.67;1976793;72;26196;-73
2022/06/03 03:21:15;;;;;;;82.43;76.33;;;;;;;12.50;100.00;101798.05;1914973;74;26784;-73
2022/06/03 03:24:33;;;;;;;80.90;74.90;;;;;;;12.50;100.00;101799.44;1982820;72;26255;-74
2022/06/03 03:27:18;;;;;;;81.00;75.10;;;;;;;12.63;100.00;101789.16;1980348;72;26739;-72
2022/06/03 03:29:58;;;;;;;83.67;77.57;;;;;;;12.54;100.00;101783.28;1974609;72;26215;-71
2022/06/03 03:32:45;;;;;;;82.27;76.13;;;;;;;12.38;100.00;101785.76;1985781;72;26221;-72
2022/06/03 03:35:37;;;;;;;79.50;73.57;;;;;;;12.44;100.00;101790.80;1910183;74;26225;-74
2022/06/03 03:38:46;;;;;;;80.73;74.70;;;;;;;12.36;100.00;101788.55;1890231;75;26261;-74
2022/06/03 03:45:47;;;;;;;82.43;76.37;;;;;;;12.39;100.00;101771.27;2053288;69;33134;-74
2022/06/03 03:48:31;;;;;;;82.80;76.83;;;;;;;12.26;100.00;101782.38;2020545;70;26667;-73
2022/06/03 03:51:16;;;;;;;82.47;76.47;;;;;;;12.04;100.00;101780.34;2022195;71;26645;-73
2022/06/03 03:54:19;;;;;;;84.80;78.60;;;;;;;12.05;100.00;101777.85;2024236;70;26685;-74
2022/06/03 03:57:36;;;;;;;81.03;75.33;;;;;;;12.18;100.00;101778.19;2025158;70;26218;-72
2022/06/03 04:00:12;;;;;;;78.60;72.60;;;;;;;12.13;100.00;101771.20;1981242;70;26735;-74
2022/06/03 04:03:29;;;;;;;76.83;71.07;;;;;;;12.09;100.00;101769.23;1846874;70;934965;-74
2022/06/03 04:06:42;;;;;;;76.20;70.47;;;;;;;12.09;100.00;101765.06;1859222;77;26240;-74
2022/06/03 04:13:18;;;;;;;76.40;70.43;;;;;;;12.10;100.00;101760.62;2060893;69;32692;-72
2022/06/03 04:16:43;;;;;;;78.00;72.03;;;;;;;12.13;100.00;101768.42;2016183;70;26686;-74
2022/06/03 04:19:49;;;;;;;78.07;72.13;;;;;;;12.22;100.00;101771.52;1899548;74;26628;-72
2022/06/03 04:22:48;;;;;;;75.27;69.67;;;;;;;12.05;100.00;101763.93;2012568;70;26218;-75
2022/06/03 04:25:53;;;;;;;76.17;70.27;;;;;;;11.96;100.00;101761.39;2016773;70;26295;-72
2022/06/03 04:28:46;;;;;;;77.90;72.07;;;;;;;12.09;100.00;101768.69;1928725;73;26208;-72
2022/06/03 04:31:45;;;;;;;78.33;72.37;;;;;;;12.28;100.00;101767.06;1937189;73;26231;-74
2022/06/03 04:34:48;;;;;;;77.00;71.23;;;;;;;12.41;100.00;101764.30;1965085;72;26701;-74
2022/06/03 04:38:05;;;;;;;80.43;74.57;;;;;;;12.33;100.00;101764.84;1936682;72;26738;-75
2022/06/03 04:41:10;;;;;;;77.93;72.10;;;;;;;12.47;100.00;101778.55;1930068;73;26244;-72
2022/06/03 04:44:06;;;;;;;76.63;71.10;;;;;;;12.65;100.00;101773.00;2015540;71;26263;-74
2022/06/03 04:47:19;;;;;;;76.53;70.67;;;;;;;12.58;100.00;101777.44;2016364;70;26206;-74
2022/06/03 04:50:33;;;;;;;74.10;68.03;;;;;;;12.54;100.00;101769.34;1927650;73;26334;-72
2022/06/03 04:57:11;;;;;;;77.43;71.60;;;;;;;12.65;100.00;101775.79;2051752;69;32615;-75
2022/06/03 05:00:25;;;;;;;74.60;68.80;;;;;;;12.60;100.00;101782.19;2014324;70;26258;-73
2022/06/03 05:03:27;;;;;;;79.00;73.20;;;;;;;12.79;100.00;101783.91;2012745;70;26223;-72
2022/06/03 05:06:47;;;;;;;79.23;73.63;;;;;;;12.85;100.00;101782.78;2017193;70;26323;-72
2022/06/03 05:13:32;;;;;;;78.63;72.63;;;;;;;13.01;100.00;101768.27;2060876;69;32734;-74
2022/06/03 05:20:42;;;;;;;77.33;71.80;;;;;;;13.18;100.00;101771.09;2040799;69;32670;-72
2022/06/03 05:26:57;;;;;;;75.50;69.90;;;;;;;13.22;100.00;101767.20;2053073;69;32694;-72
2022/06/03 05:30:09;;;;;;;75.67;70.20;;;;;;;13.12;100.00;101776.41;1892326;74;26273;-72
2022/06/03 05:33:09;;;;;;;73.17;67.67;;;;;;;13.33;100.00;101775.83;1944725;73;26351;-73
2022/06/03 05:36:10;;;;;;;75.40;69.63;;;;;;;13.32;100.00;101778.33;1947354;72;26222;-75
2022/06/03 05:39:26;;;;;;;76.43;70.83;;;;;;;13.35;100.00;101778.34;1917898;72;26329;-75
2022/06/03 05:42:30;;;;;;;74.53;68.73;;;;;;;13.40;100.00;101785.29;2018441;71;26635;-72
2022/06/03 05:45:15;;;;;;;78.40;72.60;;;;;;;13.46;100.00;101790.60;1919627;73;26244;-74
2022/06/03 05:47:49;;;;;;;77.43;71.40;;;;;;;13.62;100.00;101791.39;1929247;73;26267;-75
2022/06/03 05:50:23;;;;;;;77.73;72.13;;;;;;;13.69;100.00;101780.79;1965148;72;26222;-72
2022/06/03 05:53:07;;;;;;;77.70;72.10;;;;;;;13.80;100.00;101785.77;1934367;73;26289;-72
2022/06/03 05:55:44;;;;;;;74.83;69.33;;;;;;;14.01;100.00;101784.58;2014220;70;26226;-72
2022/06/03 05:58:25;;;;;;;75.87;70.17;;;;;;;13.88;100.00;101785.18;2011751;70;26215;-75
2022/06/03 06:01:03;;;;;;;78.47;72.87;;;;;;;14.07;100.00;101789.03;2015915;70;26266;-72
2022/06/03 06:03:41;;;;;;;78.50;72.97;;;;;;;14.06;100.00;101784.56;2016236;70;26202;-72
2022/06/03 06:09:37;;;;;;;77.73;72.10;;;;;;;14.25;100.00;101764.61;2053030;69;32708;-73
2022/06/03 06:15:42;;;;;;;79.27;73.77;;;;;;;14.56;100.00;101762.50;2059669;69;32662;-74
2022/06/03 06:18:17;;;;;;;79.40;73.77;;;;;;;14.72;100.00;101765.46;2035494;70;26628;-71
2022/06/03 06:20:58;;;;;;;78.77;72.63;;;;;;;14.78;100.00;101759.28;2034543;70;26655;-71
2022/06/03 06:23:36;;;;;;;78.47;73.00;;;;;;;14.88;100.00;101758.66;2040602;69;26207;-71
2022/06/03 06:26:32;;;;;;;74.97;69.40;;;;;;;15.00;100.00;101753.51;2041955;69;26641;-71
2022/06/03 06:29:16;;;;;;;76.03;70.10;;;;;;;15.06;100.00;101748.68;1929952;72;26326;-74
2022/06/03 06:32:32;;;;;;;75.43;70.27;;;;;;;15.25;100.00;101753.84;1943858;73;26174;-71
2022/06/03 06:35:35;;;;;;;75.40;70.23;;;;;;;15.37;100.00;101757.06;1945409;72;26703;-75
2022/06/03 06:38:12;;;;;;;75.57;70.17;;;;;;;15.58;100.00;101748.48;1974407;71;26202;-75
2022/06/03 06:40:48;;;;;;;74.43;69.27;;;;;;;15.55;100.00;101747.68;2045379;69;26667;-73
2022/06/03 06:46:42;;;;;;;78.13;72.10;;;;;;;15.58;100.00;101749.88;2045684;69;32618;-73
2022/06/03 06:52:42;;;;;;;77.07;71.60;;;;;;;15.19;100.00;101755.59;2053915;69;33183;-79
2022/06/03 06:55:18;;;;;;;78.93;73.30;;;;;;;15.15;100.00;101765.67;1945052;73;26684;-75
2022/06/03 06:57:50;;;;;;;77.37;71.90;;;;;;;15.18;100.00;101773.50;1929916;73;26225;-73
2022/06/03 07:00:25;;;;;;;81.27;75.33;;;;;;;15.36;100.00;101760.98;2014008;70;26309;-78
2022/06/03 07:02:58;;;;;;;79.07;73.40;;;;;;;15.33;100.00;101764.95;2019734;70;26803;-78
2022/06/03 07:05:33;;;;;;;83.73;77.93;;;;;;;15.45;100.00;101768.19;2012430;70;26689;-78
2022/06/03 07:11:15;;;;;;;78.17;72.57;;;;;;;15.63;100.00;101760.47;2053797;69;32629;-78
2022/06/03 07:13:49;;;;;;;82.03;76.47;;;;;;;15.85;100.00;101761.34;2025596;70;26193;-79
2022/06/03 07:19:47;;;;;;;77.03;71.57;;;;;;;16.03;100.00;101756.36;1947055;73;26181;-73
2022/06/03 07:22:25;;;;;;;77.90;72.50;;;;;;;16.60;100.00;101748.87;2051698;69;32606;-71
2022/06/03 07:25:00;;;;;;;77.00;72.00;;;;;;;16.83;100.00;101752.13;1942120;72;26245;-74
2022/06/03 07:27:34;;;;;;;79.57;74.43;;;;;;;16.78;100.00;101750.80;1937902;73;26281;-71
2022/06/03 07:30:11;;;;;;;77.83;72.87;;;;;;;17.14;100.00;101753.30;1967777;72;26232;-71
2022/06/03 07:32:44;;;;;;;72.60;67.90;;;;;;;17.14;100.00;101753.30;1943413;73;24152;-71
2022/06/03 07:35:19;;;;;;;68.50;64.30;;;;;;;17.55;100.00;101747.75;1965179;72;26302;-74
2022/06/03 07:37:53;;;;;;;71.33;66.83;;;;;;;17.24;100.00;101750.28;1947230;73;26823;-73
2022/06/03 07:40:27;;;;;;;67.70;63.50;;;;;;;17.59;100.00;101742.37;1965412;72;26755;-73
2022/06/03 07:43:03;;;;;;;69.13;64.80;;;;;;;17.59;100.00;101742.37;1939693;73;26264;-69
2022/06/03 07:45:44;;;;;;;71.63;67.13;;;;;;;17.89;100.00;101733.89;1937689;73;26308;-73
2022/06/03 07:48:18;;;;;;;73.27;68.60;;;;;;;17.83;100.00;101739.38;1924312;74;24632;-73
2022/06/03 07:50:52;;;;;;;70.07;65.83;;;;;;;18.00;100.00;101747.45;1940889;73;24246;-73
2022/06/03 07:53:29;;;;;;;72.33;68.23;;;;;;;18.01;100.00;101742.05;1964265;72;26713;-72
2022/06/03 07:56:00;;;;;;;55.33;52.23;;;;;;;18.31;100.00;101743.97;1934566;73;24238;-73
2022/06/03 07:58:36;;;;;;;55.13;51.87;;;;;;;18.26;100.00;101740.70;1935812;74;26267;-83
2022/06/03 08:01:25;;;;;;;54.33;51.20;;;;;;;18.23;100.00;101736.28;1940131;73;24728;-77
2022/06/03 08:03:56;;;;;;;54.23;51.23;;;;;;;18.24;100.00;101729.48;1925256;74;24179;-76
2022/06/03 08:10:56;;;;;;;52.17;49.13;;;;;;;18.50;100.00;101715.93;1939363;73;24176;-78
2022/06/03 08:12:34;;;;;;;49.97;47.00;;;;;;;18.96;100.00;101711.44;2053666;69;33165;-79
2022/06/03 08:15:16;;;;;;;47.90;45.10;;;;;;;18.94;100.00;101709.53;2015689;70;24141;-75
2022/06/03 08:17:49;;;;;;;46.80;43.80;;;;;;;19.13;100.00;101716.34;2019644;70;24205;-79
2022/06/03 08:23:34;;;;;;;38.63;36.27;;;;;;;19.27;100.00;101703.59;2060941;69;30548;-75
2022/06/03 08:29:31;;;;;;;32.83;31.03;;;;;;;19.31;100.00;101685.72;2034274;69;30575;-75
2022/06/03 08:32:04;;;;;;;48.27;45.67;;;;;;;19.25;100.00;101689.01;2013811;70;24733;-72
2022/06/03 08:34:38;;;;;;;44.83;41.83;;;;;;;19.60;100.00;101687.19;2007391;70;24234;-73
2022/06/03 08:37:12;;;;;;;45.07;42.50;;;;;;;19.78;100.00;101689.75;2011395;70;24192;-74
2022/06/03 08:39:44;;;;;;;44.17;41.63;;;;;;;19.91;100.00;101696.42;2009417;70;24158;-74
2022/06/03 08:42:31;;;;;;;41.33;38.63;;;;;;;19.94;100.00;101699.98;2014852;70;24211;-74
2022/06/03 08:45:20;;;;;;;41.57;39.33;;;;;;;19.86;100.00;101700.23;2015959;70;24159;-73
2022/06/03 08:47:53;;;;;;;41.17;38.77;;;;;;;19.82;100.00;101702.61;2027077;70;24152;-75
2022/06/03 08:50:33;;;;;;;37.17;35.07;;;;;;;19.86;100.00;101707.84;2025280;70;24157;-72
2022/06/03 08:53:07;;;;;;;36.23;34.20;;;;;;;19.81;100.00;101705.20;2016213;70;24158;-74
2022/06/03 08:55:47;;;;;;;38.50;36.30;;;;;;;19.80;100.00;101702.96;2016832;71;24698;-73
2022/06/03 08:58:30;;;;;;;40.37;37.97;;;;;;;19.66;100.00;101707.04;2017973;70;24769;-75
2022/06/03 09:01:34;;;;;;;36.23;34.30;;;;;;;19.66;100.00;101706.47;2019435;70;24606;-74
2022/06/03 09:04:14;;;;;;;34.33;32.53;;;;;;;19.39;100.00;101715.09;1906806;74;24190;-74
2022/06/03 09:06:51;;;;;;;35.60;33.73;;;;;;;19.61;100.00;101705.20;1925750;73;26694;-75
2022/06/03 09:12:42;;;;;;;37.80;35.70;;;;;;;19.59;100.00;101704.70;2053663;69;30586;-75
2022/06/03 09:18:24;;;;;;;39.93;37.53;;;;;;;19.72;100.00;101709.98;2043133;69;30656;-74
2022/06/03 09:20:58;;;;;;;39.00;36.90;;;;;;;19.67;100.00;101718.58;2028602;70;24129;-74
2022/06/03 09:23:30;;;;;;;36.20;33.97;;;;;;;19.55;100.00;101717.79;2020117;70;24173;-75
2022/06/03 09:26:01;;;;;;;36.03;34.07;;;;;;;19.68;100.00;101714.00;2022015;70;26685;-75
2022/06/03 09:28:34;;;;;;;38.23;35.90;;;;;;;19.77;100.00;101718.27;2015915;70;24168;-74
2022/06/03 09:31:07;;;;;;;36.50;34.47;;;;;;;19.92;100.00;101709.38;2016791;71;24219;-74
2022/06/03 09:33:39;;;;;;;36.20;34.10;;;;;;;20.05;100.00;101698.55;2012895;70;24235;-75
2022/06/03 09:36:14;;;;;;;31.93;29.93;;;;;;;20.20;100.00;101704.28;2019428;70;26676;-75
2022/06/03 09:38:48;;;;;;;30.00;28.30;;;;;;;20.18;100.00;101702.38;2022976;70;24216;-74
2022/06/03 09:41:21;;;;;;;29.77;28.00;;;;;;;20.24;100.00;101696.81;2012479;70;24166;-75
2022/06/03 09:43:54;;;;;;;27.53;25.87;;;;;;;20.55;100.00;101702.35;2012644;70;24258;-75
2022/06/03 09:46:29;;;;;;;27.10;25.33;;;;;;;20.55;100.00;101701.78;2008270;70;24318;-75
2022/06/03 09:49:01;;;;;;;28.47;26.77;;;;;;;20.64;100.00;101704.59;2010479;70;24212;-75
2022/06/03 09:54:26;;;;;;;25.97;24.37;;;;;;;20.80;100.00;101698.11;2016683;70;24174;-75
2022/06/03 09:56:59;;;;;;;24.37;22.87;;;;;;;20.85;100.00;101692.30;1965144;72;24199;-74
2022/06/03 09:59:30;;;;;;;23.90;22.40;;;;;;;20.86;100.00;101693.12;1970875;72;26793;-72
2022/06/03 10:02:01;;;;;;;23.77;22.57;;;;;;;20.83;100.00;101696.05;1937752;74;26775;-73
2022/06/03 10:04:31;;;;;;;23.50;22.00;;;;;;;20.89;100.00;101697.52;1924292;74;26698;-74
2022/06/03 10:07:02;;;;;;;23.13;21.73;;;;;;;20.97;100.00;101697.83;1937862;74;24185;-74
2022/06/03 10:15:39;;;;;;;20.57;19.30;;;;;;;21.43;100.00;101697.94;2038737;69;33310;-88
2022/06/03 10:18:17;;;;;;;18.97;18.00;;;;;;;21.54;100.00;101696.38;1941888;73;24172;-74
2022/06/03 10:20:49;;;;;;;19.80;18.50;;;;;;;21.62;100.00;101697.51;1936390;73;26747;-77
2022/06/03 10:23:21;;;;;;;17.47;16.37;;;;;;;21.76;100.00;101691.88;1941615;73;24165;-74
2022/06/03 10:25:52;;;;;;;17.33;16.17;;;;;;;21.75;100.00;101697.28;1937866;74;24596;-77
2022/06/03 10:28:27;;;;;;;16.93;15.73;;;;;;;21.61;100.00;101692.44;1936136;73;24264;-86
2022/06/03 10:31:05;;;;;;;15.20;14.27;;;;;;;21.51;100.00;101695.66;1968095;72;24140;-73
2022/06/03 10:33:36;;;;;;;14.97;14.00;;;;;;;21.49;100.00;101695.15;1954677;73;24171;-77
2022/06/03 10:36:08;;;;;;;14.67;13.50;;;;;;;21.44;100.00;101698.73;1939822;73;24172;-77
2022/06/03 10:38:39;;;;;;;13.40;12.57;;;;;;;21.46;100.00;101693.01;1936526;73;24174;-78
2022/06/03 10:41:10;;;;;;;14.37;13.47;;;;;;;21.54;100.00;101689.31;1954172;73;24117;-77
2022/06/03 10:43:42;;;;;;;13.83;13.00;;;;;;;21.61;100.00;101681.13;1928227;73;24177;-77
2022/06/03 10:46:17;;;;;;;14.20;13.30;;;;;;;21.65;100.00;101685.54;2009655;70;24178;-85
2022/06/03 10:48:48;;;;;;;14.03;13.10;;;;;;;21.69;100.00;101684.49;2013726;70;24164;-74
2022/06/03 11:01:06;;;;;;;13.47;12.57;;;;;;;21.73;100.00;101678.42;2021089;70;24149;-76
2022/06/03 11:05:47;;;;;;;14.17;12.93;;;;;;;22.08;100.00;101656.42;2058691;69;30579;-75
2022/06/03 11:08:19;;;;;;;13.17;12.33;;;;;;;22.06;100.00;101654.53;1911767;74;24167;-75
2022/06/03 11:10:52;;;;;;;13.23;12.43;;;;;;;22.06;100.00;101659.36;1912803;74;24226;-75
2022/06/03 11:13:33;;;;;;;11.57;10.93;;;;;;;22.09;100.00;101663.75;1913147;74;24171;-74
2022/06/03 11:16:16;;;;;;;13.33;12.63;;;;;;;21.98;100.00;101670.98;1912221;74;24607;-76
2022/06/03 11:18:47;;;;;;;13.28;12.53;;;;;;;21.98;100.00;101670.98;1932206;74;26736;-71
2022/06/03 11:21:24;;;;;;;13.17;12.37;;;;;;;22.11;100.00;101671.90;1930769;74;24161;-78
2022/06/03 11:23:57;;;;;;;12.20;11.40;;;;;;;22.20;100.00;101665.02;1903971;75;24119;-72
2022/06/03 11:26:30;;;;;;;12.45;11.53;;;;;;;22.25;100.00;101665.37;1910926;74;24142;-72
2022/06/03 11:29:03;;;;;;;12.40;11.65;;;;;;;22.31;100.00;101668.83;1912612;74;24196;-73
2022/06/03 11:31:37;;;;;;;11.53;10.72;;;;;;;22.19;100.00;101663.94;1908226;74;24586;-73
2022/06/03 11:37:19;;;;;;;12.60;11.70;;;;;;;22.30;100.00;101654.43;2057680;69;30624;-75
2022/06/03 11:39:52;;;;;;;12.90;12.20;;;;;;;22.27;100.00;101660.79;1943177;73;24647;-76
2022/06/03 11:42:26;;;;;;;12.93;11.93;;;;;;;22.23;100.00;101659.23;1938037;74;24226;-75
2022/06/03 11:44:59;;;;;;;12.17;11.43;;;;;;;22.17;100.00;101665.68;1966308;72;24160;-74
2022/06/03 11:50:37;;;;;;;12.60;11.70;;;;;;;22.36;100.00;101658.72;2043850;69;30489;-77
2022/06/03 11:53:09;;;;;;;12.07;11.27;;;;;;;22.43;100.00;101664.06;2013510;70;24205;-79
2022/06/03 11:55:41;;;;;;;12.83;12.13;;;;;;;22.51;100.00;101653.25;2026319;70;24170;-77
2022/06/03 11:58:14;;;;;;;12.25;11.45;;;;;;;22.44;100.00;101650.16;2016263;70;24196;-75
2022/06/03 12:00:49;;;;;;;11.43;10.65;;;;;;;22.59;100.00;101653.75;1939848;74;24590;-82
2022/06/03 12:03:32;;;;;;;11.85;11.12;;;;;;;22.60;100.00;101658.25;1938170;74;24121;-83
2022/06/03 12:06:06;;;;;;;12.00;11.20;;;;;;;22.70;100.00;101657.03;1936343;74;24709;-75
2022/06/03 12:14:50;;;;;;;11.00;10.30;;;;;;;22.59;100.00;101655.78;2022444;70;24247;-82
2022/06/03 12:17:33;;;;;;;11.53;10.47;;;;;;;22.52;100.00;101653.50;2012208;70;24160;-78
2022/06/03 12:20:21;;;;;;;10.93;10.32;;;;;;;22.52;100.00;101656.33;2008389;70;24163;-77
2022/06/03 12:22:51;;;;;;;11.65;10.90;;;;;;;22.54;100.00;101648.33;1936498;73;24671;-81
2022/06/03 12:25:44;;;;;;;12.47;11.73;;;;;;;22.50;100.00;101650.20;1937667;73;24181;-76
2022/06/03 12:28:25;;;;;;;11.70;11.00;;;;;;;22.62;100.00;101649.42;1941355;73;24121;-76
2022/06/03 12:30:57;;;;;;;11.65;10.90;;;;;;;22.97;100.00;101647.10;1967584;72;24149;-85
2022/06/03 12:33:33;;;;;;;11.53;10.75;;;;;;;22.99;100.00;101648.40;1937614;73;24162;-82
2022/06/03 12:36:08;;;;;;;11.18;10.48;;;;;;;23.02;100.00;101645.44;1936302;73;24186;-76
2022/06/03 12:39:09;;;;;;;11.70;10.95;;;;;;;22.88;100.00;101646.37;1931326;73;24177;-76
2022/06/03 12:42:05;;;;;;;11.48;10.68;;;;;;;22.90;100.00;101639.16;1929057;72;24677;-83
2022/06/03 12:44:39;;;;;;;10.95;10.28;;;;;;;22.84;100.00;101645.41;1938065;74;24202;-84
2022/06/03 12:47:50;;;;;;;11.15;10.55;;;;;;;22.70;100.00;101637.20;1932654;73;24644;-76
2022/06/03 12:50:51;;;;;;;11.05;10.45;;;;;;;22.64;100.00;101638.55;1938200;73;24137;-76
2022/06/03 12:53:34;;;;;;;10.88;10.35;;;;;;;22.59;100.00;101635.97;1924483;74;24227;-76
2022/06/03 12:56:25;;;;;;;11.43;10.63;;;;;;;22.57;100.00;101646.80;1942861;73;24148;-82
2022/06/03 12:59:29;;;;;;;10.48;9.88;;;;;;;22.50;100.00;101646.54;1940819;73;24113;-83
2022/06/03 13:02:06;;;;;;;11.00;10.40;;;;;;;22.40;100.00;101645.53;1935039;73;24228;-77
2022/06/03 13:05:18;;;;;;;11.20;10.50;;;;;;;22.47;100.00;101642.38;1938304;73;24163;-82
2022/06/03 13:08:01;;;;;;;11.00;10.27;;;;;;;22.49;100.00;101645.70;1910126;75;24269;-74
2022/06/03 13:10:52;;;;;;;10.38;9.70;;;;;;;22.58;100.00;101646.45;1902895;73;24206;-76
2022/06/03 13:13:52;;;;;;;10.80;10.30;;;;;;;22.58;100.00;101647.88;1891305;75;24212;-75
2022/06/03 13:16:35;;;;;;;11.18;10.50;;;;;;;22.64;100.00;101642.22;1904506;74;24691;-85
2022/06/03 13:19:43;;;;;;;10.10;9.60;;;;;;;22.84;100.00;101646.83;1904263;75;24163;-78
2022/06/03 13:22:33;;;;;;;11.00;10.30;;;;;;;22.94;100.00;101654.86;1937397;74;24559;-75
2022/06/03 13:25:31;;;;;;;10.90;10.30;;;;;;;22.93;100.00;101644.73;1911028;74;24129;-81
2022/06/03 13:28:37;;;;;;;10.80;10.10;;;;;;;23.20;100.00;101649.73;1931484;74;24163;-80
2022/06/03 13:31:19;;;;;;;11.10;10.60;;;;;;;23.30;100.00;101646.46;1931504;74;24117;-77
2022/06/03 13:34:31;;;;;;;11.22;10.43;;;;;;;23.26;100.00;101651.77;1931391;74;24179;-77
2022/06/03 13:37:24;;;;;;;10.80;10.15;;;;;;;23.08;100.00;101656.22;1931546;74;24659;-77
2022/06/03 13:40:08;;;;;;;11.28;10.68;;;;;;;22.89;100.00;101653.70;1931287;74;24133;-80
2022/06/03 13:46:30;;;;;;;11.00;10.30;;;;;;;23.01;100.00;101650.31;2061334;69;30545;-80
2022/06/03 13:49:03;;;;;;;11.30;10.60;;;;;;;22.94;100.00;101658.53;1941039;73;24678;-80
2022/06/03 13:52:08;;;;;;;11.83;11.12;;;;;;;22.77;100.00;101647.95;1950272;73;24184;-80
2022/06/03 13:54:45;;;;;;;13.13;12.30;;;;;;;22.75;100.00;101652.58;1965428;72;24177;-77
2022/06/03 13:57:28;;;;;;;12.20;11.22;;;;;;;22.78;100.00;101655.28;1938021;74;24161;-79
2022/06/03 14:00:21;;;;;;;13.05;12.15;;;;;;;22.92;100.00;101643.06;1965977;72;24157;-80
2022/06/03 14:02:56;;;;;;;13.28;12.47;;;;;;;23.02;100.00;101647.69;1946409;74;24133;-79
2022/06/03 14:05:33;;;;;;;12.55;11.60;;;;;;;23.01;100.00;101645.22;1967496;72;24228;-76
2022/06/03 14:11:15;;;;;;;12.63;12.00;;;;;;;23.05;100.00;101641.92;2052847;69;30520;-77
2022/06/03 14:13:56;;;;;;;13.25;11.73;;;;;;;23.07;100.00;101635.30;1937011;73;24157;-77
2022/06/03 14:16:29;;;;;;;13.20;11.80;;;;;;;22.97;100.00;101638.02;1965374;72;24642;-84
2022/06/03 14:19:05;;;;;;;14.10;10.95;;;;;;;23.04;100.00;101636.02;1930319;73;24157;-83
2022/06/03 14:21:41;;;;;;;13.98;11.10;;;;;;;23.07;100.00;101640.97;2002355;70;24144;-75
2022/06/03 14:24:15;;;;;;;19.57;11.73;;;;;;;23.04;100.00;101645.93;1938368;73;24234;-83
2022/06/03 14:29:58;;;;;;;14.38;12.23;;;;;;;22.99;100.00;101647.56;2049598;69;30552;-84
2022/06/03 14:35:40;;;;;;;11.25;10.65;;;;;;;23.07;100.00;101649.47;2061411;69;30622;-79
2022/06/03 14:38:15;;;;;;;11.20;10.60;;;;;;;23.02;100.00;101643.44;2023949;70;24184;-81
2022/06/03 14:40:53;;;;;;;24.50;13.25;;;;;;;23.03;100.00;101639.43;1938507;74;24198;-83